Time;durP1;ratioP1;P1;durP2;ratioP2;P2;SDS_P1;SDS_P2;PMS_P1;PMS_P2;Temp;Humidity;BMP_temperature;BMP_pressure;BME280_temperature;BME280_humidity;BME280_pressure;Samples;Min_cycle;Max_cycle;Signal;HPM_P1;HPM_P2
2023/01/02 00:01:28;;;;;;;18.50;12.60;;;11.40;99.90;;;;;;5067249;28;20480;-64
2023/01/02 00:03:55;;;;;;;16.77;12.70;;;11.30;99.90;;;;;;5085114;28;20472;-64
2023/01/02 00:06:21;;;;;;;17.10;12.27;;;11.40;99.90;;;;;;5066509;28;20594;-64
2023/01/02 00:08:47;;;;;;;19.73;12.70;;;11.30;99.90;;;;;;5084540;28;20041;-64
2023/01/02 00:11:12;;;;;;;18.30;12.50;;;11.30;99.90;;;;;;5084392;28;20036;-64
2023/01/02 00:13:38;;;;;;;19.30;12.48;;;11.20;99.90;;;;;;5085253;28;20036;-64
2023/01/02 00:16:04;;;;;;;18.63;13.35;;;11.20;99.90;;;;;;5084923;28;20040;-64
2023/01/02 00:18:30;;;;;;;16.52;12.32;;;11.30;99.90;;;;;;5084616;28;20385;-64
2023/01/02 00:20:55;;;;;;;22.40;13.55;;;11.20;99.90;;;;;;5084240;28;20037;-64
2023/01/02 00:23:21;;;;;;;18.65;13.73;;;11.10;99.90;;;;;;5066377;28;20489;-64
2023/01/02 00:25:47;;;;;;;23.50;13.93;;;11.20;99.90;;;;;;5083304;28;20056;-64
2023/01/02 00:28:14;;;;;;;23.40;14.23;;;11.20;99.90;;;;;;5068802;28;20514;-64
2023/01/02 00:30:39;;;;;;;19.20;13.60;;;11.20;99.90;;;;;;5088901;28;20067;-64
2023/01/02 00:33:06;;;;;;;23.38;15.35;;;11.20;99.90;;;;;;5089182;28;20052;-64
2023/01/02 00:35:32;;;;;;;21.77;14.38;;;11.30;99.90;;;;;;5090618;28;20040;-64
2023/01/02 00:37:57;;;;;;;22.27;14.90;;;11.20;99.90;;;;;;5100854;28;20047;-64
2023/01/02 00:40:23;;;;;;;25.77;16.50;;;11.20;99.90;;;;;;5074822;28;20041;-64
2023/01/02 00:42:49;;;;;;;24.42;15.90;;;11.10;99.90;;;;;;5088451;28;20055;-64
2023/01/02 00:45:15;;;;;;;24.77;16.88;;;11.10;99.90;;;;;;5088845;28;20032;-64
2023/01/02 00:47:40;;;;;;;25.90;16.17;;;11.20;99.90;;;;;;5081321;28;20082;-64
2023/01/02 00:50:06;;;;;;;20.88;15.65;;;11.10;99.90;;;;;;5068733;28;20044;-64
2023/01/02 00:52:32;;;;;;;24.17;16.20;;;11.30;99.90;;;;;;5088171;28;20044;-64
2023/01/02 00:54:57;;;;;;;22.67;18.27;;;11.20;99.90;;;;;;5075267;28;20048;-64
2023/01/02 00:57:23;;;;;;;27.20;18.15;;;11.20;99.90;;;;;;5087429;28;20134;-64
2023/01/02 00:59:49;;;;;;;23.85;17.90;;;11.30;99.90;;;;;;5088777;28;20037;-64
2023/01/02 01:02:14;;;;;;;29.40;19.60;;;11.40;99.90;;;;;;5088792;28;20047;-64
2023/01/02 01:04:40;;;;;;;28.20;18.05;;;11.40;99.90;;;;;;5058499;28;20048;-64
2023/01/02 01:07:05;;;;;;;26.83;19.30;;;11.40;99.90;;;;;;5086491;28;20048;-64
2023/01/02 01:09:31;;;;;;;27.73;18.40;;;11.40;99.90;;;;;;5087972;28;20076;-64
2023/01/02 01:11:57;;;;;;;25.35;17.70;;;11.40;99.90;;;;;;5087404;28;20044;-64
2023/01/02 01:14:22;;;;;;;25.15;17.77;;;11.40;99.90;;;;;;5099398;28;20040;-64
2023/01/02 01:16:48;;;;;;;27.35;18.08;;;11.30;99.90;;;;;;5054415;28;20119;-64
2023/01/02 01:19:14;;;;;;;25.80;17.50;;;11.50;99.90;;;;;;5068131;28;20041;-64
2023/01/02 01:21:40;;;;;;;30.50;18.48;;;11.40;99.90;;;;;;5055081;28;20049;-64
2023/01/02 01:24:05;;;;;;;27.83;18.40;;;11.40;99.90;;;;;;5076942;28;20041;-64
2023/01/02 01:26:31;;;;;;;33.88;19.60;;;11.40;99.90;;;;;;5087273;28;20044;-64
2023/01/02 01:28:57;;;;;;;29.63;18.90;;;11.30;99.90;;;;;;5087763;28;20060;-64
2023/01/02 01:31:23;;;;;;;31.08;19.55;;;11.20;99.90;;;;;;5087721;28;20056;-64
2023/01/02 01:33:49;;;;;;;31.20;19.48;;;11.30;99.90;;;;;;5079062;28;20463;-64
2023/01/02 01:36:17;;;;;;;31.15;18.70;;;11.20;99.90;;;;;;5067876;28;20447;-64
2023/01/02 01:38:44;;;;;;;31.20;19.08;;;11.40;99.90;;;;;;5076412;28;20036;-64
2023/01/02 01:41:12;;;;;;;28.42;16.92;;;11.40;99.90;;;;;;5087461;28;20044;-64
2023/01/02 01:43:41;;;;;;;33.05;19.30;;;11.30;99.90;;;;;;5087210;28;20040;-64
2023/01/02 01:46:17;;;;;;;29.83;18.60;;;11.30;99.90;;;;;;5087614;28;20072;-64
2023/01/02 01:48:43;;;;;;;26.38;18.48;;;11.40;99.90;;;;;;5069277;28;20499;-64
2023/01/02 01:51:09;;;;;;;29.70;16.75;;;11.30;99.90;;;;;;5088756;28;20028;-64
2023/01/02 01:53:36;;;;;;;26.83;16.48;;;11.30;99.90;;;;;;5087615;28;20079;-64
2023/01/02 01:56:05;;;;;;;28.60;16.65;;;11.40;99.90;;;;;;5087428;28;20106;-64
2023/01/02 01:58:36;;;;;;;26.83;16.93;;;11.50;99.90;;;;;;5069593;28;20461;-64
2023/01/02 02:01:02;;;;;;;26.27;16.17;;;11.30;99.90;;;;;;5087202;28;20037;-64
2023/01/02 02:03:30;;;;;;;25.85;15.30;;;11.30;99.90;;;;;;5087533;28;20045;-64
2023/01/02 02:05:58;;;;;;;26.20;16.38;;;11.30;99.90;;;;;;5087514;28;20076;-64
2023/01/02 02:08:36;;;;;;;21.70;15.38;;;11.50;99.90;;;;;;5068493;28;20087;-64
2023/01/02 02:11:02;;;;;;;23.77;15.23;;;11.40;99.90;;;;;;5087091;28;20041;-64
2023/01/02 02:13:31;;;;;;;25.50;15.63;;;11.50;99.90;;;;;;5076606;28;20412;-64
2023/01/02 02:16:14;;;;;;;29.52;15.30;;;11.50;99.90;;;;;;5086084;28;20400;-64
2023/01/02 02:19:01;;;;;;;21.85;14.52;;;11.40;99.90;;;;;;5068775;28;20376;-64
2023/01/02 02:21:54;;;;;;;25.27;15.18;;;11.50;99.90;;;;;;5077744;28;20508;-64
2023/01/02 02:24:36;;;;;;;29.95;16.02;;;11.50;99.90;;;;;;5087123;28;20048;-64
2023/01/02 02:27:10;;;;;;;28.40;15.48;;;11.30;99.90;;;;;;5086533;28;20094;-64
2023/01/02 02:30:02;;;;;;;26.73;14.63;;;11.30;99.90;;;;;;5088832;28;20064;-64
2023/01/02 02:32:42;;;;;;;27.02;14.55;;;11.30;99.90;;;;;;5086741;28;20055;-64
2023/01/02 02:35:42;;;;;;;25.90;14.95;;;11.50;99.90;;;;;;5068714;28;20051;-64
2023/01/02 02:38:23;;;;;;;26.50;14.68;;;11.40;99.90;;;;;;5086760;28;20072;-64
2023/01/02 02:41:04;;;;;;;23.95;14.00;;;11.30;99.90;;;;;;5075328;28;20040;-64
2023/01/02 02:43:48;;;;;;;24.25;13.50;;;11.50;99.90;;;;;;5052020;28;20219;-64
2023/01/02 02:46:51;;;;;;;22.77;13.65;;;11.50;99.90;;;;;;5068155;28;20047;-64
2023/01/02 02:49:56;;;;;;;20.83;12.43;;;11.50;99.90;;;;;;5076974;28;20044;-64
2023/01/02 02:52:28;;;;;;;24.75;14.20;;;11.70;99.90;;;;;;5086081;28;20048;-64
2023/01/02 02:55:06;;;;;;;23.58;13.57;;;11.70;99.90;;;;;;5068471;28;20076;-64
2023/01/02 02:57:33;;;;;;;26.60;12.63;;;11.50;99.90;;;;;;5076777;28;20503;-64
2023/01/02 02:59:59;;;;;;;21.30;11.35;;;11.50;99.90;;;;;;5085606;28;20032;-64
2023/01/02 03:02:25;;;;;;;18.10;11.75;;;11.70;99.90;;;;;;5068390;28;20048;-64
2023/01/02 03:04:58;;;;;;;21.40;12.43;;;11.70;99.90;;;;;;5085923;28;20081;-64
2023/01/02 03:07:48;;;;;;;20.60;12.60;;;11.50;99.90;;;;;;5071134;28;20047;-64
2023/01/02 03:10:22;;;;;;;20.03;12.47;;;11.70;99.90;;;;;;5067993;28;20040;-64
2023/01/02 03:13:09;;;;;;;20.02;11.55;;;11.70;99.90;;;;;;5085144;28;20317;-63
2023/01/02 03:15:58;;;;;;;20.10;11.02;;;11.60;99.90;;;;;;5059110;28;20048;-63
2023/01/02 03:18:57;;;;;;;21.08;11.68;;;11.80;99.90;;;;;;5085080;28;20045;-63
2023/01/02 03:21:26;;;;;;;21.70;11.18;;;11.80;99.90;;;;;;5084741;28;20047;-64
2023/01/02 03:23:54;;;;;;;17.95;10.23;;;11.60;99.90;;;;;;5085427;28;20040;-64
2023/01/02 03:26:25;;;;;;;21.33;11.63;;;11.70;99.90;;;;;;5085764;28;20052;-64
2023/01/02 03:28:57;;;;;;;28.58;11.50;;;11.50;99.90;;;;;;5085579;28;20052;-64
2023/01/02 03:31:25;;;;;;;21.75;11.82;;;11.60;99.90;;;;;;5067121;28;20105;-64
2023/01/02 03:34:02;;;;;;;19.38;11.30;;;11.60;99.90;;;;;;5084761;28;20055;-64
2023/01/02 03:36:30;;;;;;;22.50;11.05;;;11.80;99.90;;;;;;5066745;28;20055;-64
2023/01/02 03:39:31;;;;;;;23.67;11.68;;;11.60;99.90;;;;;;5084933;28;20045;-64
2023/01/02 03:42:12;;;;;;;19.10;11.55;;;11.80;99.90;;;;;;4989318;28;20149;-64
2023/01/02 03:44:46;;;;;;;20.98;10.25;;;11.70;99.90;;;;;;5005695;28;20086;-64
2023/01/02 03:47:52;;;;;;;22.10;11.75;;;11.80;99.90;;;;;;5003577;28;20058;-64
2023/01/02 03:50:22;;;;;;;20.83;12.13;;;11.50;99.90;;;;;;5003985;28;20049;-64
2023/01/02 03:52:48;;;;;;;22.08;11.80;;;11.60;99.90;;;;;;5004036;28;20059;-64
2023/01/02 03:55:14;;;;;;;21.38;11.25;;;11.60;99.90;;;;;;5003269;28;20042;-64
2023/01/02 03:57:45;;;;;;;22.70;12.13;;;11.60;99.90;;;;;;5003287;28;20054;-64
2023/01/02 04:00:17;;;;;;;23.73;12.05;;;11.40;99.90;;;;;;5003072;28;20058;-64
2023/01/02 04:02:54;;;;;;;20.85;11.27;;;11.50;99.90;;;;;;5002442;28;20082;-64
2023/01/02 04:05:28;;;;;;;21.27;11.77;;;11.60;99.90;;;;;;5002869;28;20054;-64
2023/01/02 04:08:16;;;;;;;18.52;11.10;;;11.50;99.90;;;;;;5003045;28;20046;-64
2023/01/02 04:10:44;;;;;;;21.92;11.55;;;11.50;99.90;;;;;;4987153;28;20072;-64
2023/01/02 04:13:21;;;;;;;19.98;11.32;;;11.60;99.90;;;;;;5003505;28;20054;-64
2023/01/02 04:15:49;;;;;;;17.55;11.23;;;11.60;99.90;;;;;;5003825;28;20054;-64
2023/01/02 04:18:22;;;;;;;19.70;11.70;;;11.50;99.90;;;;;;5059477;28;20434;-64
2023/01/02 04:20:53;;;;;;;16.70;11.50;;;11.60;99.90;;;;;;5066864;28;20053;-64
2023/01/02 04:23:40;;;;;;;22.95;11.10;;;11.60;99.90;;;;;;5056439;28;20044;-64
2023/01/02 04:26:20;;;;;;;19.13;10.32;;;11.50;99.90;;;;;;5087944;28;20049;-64
2023/01/02 04:28:46;;;;;;;19.08;10.85;;;11.60;99.90;;;;;;5084320;28;20051;-64
2023/01/02 04:31:18;;;;;;;17.02;9.98;;;11.70;99.90;;;;;;5083987;28;20066;-64
2023/01/02 04:33:52;;;;;;;19.65;10.32;;;11.60;99.90;;;;;;5084525;28;20052;-64
2023/01/02 04:36:18;;;;;;;19.15;10.15;;;11.80;99.90;;;;;;5079410;28;20092;-64
2023/01/02 04:38:44;;;;;;;17.85;9.95;;;11.80;99.90;;;;;;5059323;28;20055;-64
2023/01/02 04:41:25;;;;;;;16.52;8.98;;;11.80;99.90;;;;;;5083940;28;20503;-64
2023/01/02 04:43:53;;;;;;;19.17;10.25;;;12.00;99.90;;;;;;5084183;28;20045;-64
2023/01/02 04:46:18;;;;;;;21.02;11.15;;;12.00;99.90;;;;;;5071827;28;20055;-64
2023/01/02 04:48:44;;;;;;;14.57;9.40;;;11.80;99.90;;;;;;5071491;28;20236;-64
2023/01/02 04:51:10;;;;;;;15.23;9.50;;;11.80;99.90;;;;;;5084934;28;20052;-64
2023/01/02 04:53:35;;;;;;;17.90;9.45;;;11.90;99.90;;;;;;5053541;28;20052;-64
2023/01/02 04:56:01;;;;;;;21.40;10.10;;;12.00;99.90;;;;;;5066948;28;20045;-64
2023/01/02 04:58:27;;;;;;;18.00;9.50;;;12.00;99.90;;;;;;5066951;28;20052;-64
2023/01/02 05:00:53;;;;;;;20.88;9.32;;;12.00;99.90;;;;;;5091153;28;20456;-64
2023/01/02 05:03:18;;;;;;;17.70;9.95;;;12.00;99.90;;;;;;5091573;28;20538;-64
2023/01/02 05:05:44;;;;;;;15.40;8.70;;;12.00;99.90;;;;;;5084657;28;20104;-64
2023/01/02 05:08:10;;;;;;;15.95;9.02;;;12.00;99.90;;;;;;5066899;28;20056;-64
2023/01/02 05:10:35;;;;;;;14.48;9.05;;;11.90;99.90;;;;;;5064939;28;20037;-64
2023/01/02 05:13:01;;;;;;;17.65;9.30;;;12.00;99.90;;;;;;5064468;28;20144;-64
2023/01/02 05:15:27;;;;;;;16.80;9.98;;;11.90;99.90;;;;;;5086473;28;20111;-64
2023/01/02 05:17:52;;;;;;;19.25;8.95;;;12.00;99.90;;;;;;5088571;28;20040;-64
2023/01/02 05:20:18;;;;;;;17.38;8.57;;;12.10;99.90;;;;;;5087970;28;20067;-64
2023/01/02 05:25:32;;;;;;;15.60;8.10;;;12.10;99.90;;;;;;5088400;28;20040;-63
2023/01/02 05:27:57;;;;;;;14.90;7.80;;;12.00;99.90;;;;;;5070079;28;20484;-63
2023/01/02 05:30:23;;;;;;;14.73;7.72;;;11.90;99.90;;;;;;5080385;28;20045;-63
2023/01/02 05:32:49;;;;;;;19.30;8.65;;;12.00;99.90;;;;;;5081584;28;20108;-64
2023/01/02 05:35:14;;;;;;;17.25;7.95;;;12.00;99.90;;;;;;5070104;28;20041;-63
2023/01/02 05:37:40;;;;;;;15.38;7.95;;;12.20;99.90;;;;;;5070080;28;20048;-63
2023/01/02 05:40:07;;;;;;;13.32;8.25;;;12.10;99.90;;;;;;5096387;28;20044;-63
2023/01/02 05:42:32;;;;;;;17.17;8.82;;;12.00;99.90;;;;;;5087829;28;20037;-63
2023/01/02 05:44:58;;;;;;;16.60;8.35;;;12.20;99.90;;;;;;5087310;28;20051;-63
2023/01/02 05:47:24;;;;;;;14.43;8.20;;;12.20;99.90;;;;;;5086715;28;20088;-63
2023/01/02 05:49:49;;;;;;;14.15;7.97;;;12.30;99.90;;;;;;5087294;28;20112;-63
2023/01/02 05:52:15;;;;;;;13.32;8.13;;;12.10;99.90;;;;;;5087697;28;20044;-64
2023/01/02 05:54:40;;;;;;;14.77;8.25;;;12.20;99.90;;;;;;5087152;28;20040;-64
2023/01/02 05:57:06;;;;;;;13.63;7.82;;;12.30;99.90;;;;;;5069613;28;20049;-63
2023/01/02 05:59:32;;;;;;;15.23;8.43;;;12.10;99.90;;;;;;5087237;28;20029;-63
2023/01/02 06:01:57;;;;;;;16.67;8.82;;;12.00;99.90;;;;;;5086512;28;20044;-64
2023/01/02 06:04:23;;;;;;;18.42;9.45;;;12.10;99.90;;;;;;5087391;28;20045;-64
2023/01/02 06:06:49;;;;;;;14.38;8.45;;;12.20;99.90;;;;;;5087310;28;20519;-63
2023/01/02 06:09:15;;;;;;;13.70;7.47;;;12.20;99.90;;;;;;5086993;28;20590;-64
2023/01/02 06:11:42;;;;;;;18.83;7.78;;;12.20;99.90;;;;;;5087240;28;20404;-64
2023/01/02 06:14:09;;;;;;;12.32;8.43;;;12.20;99.90;;;;;;5086993;28;20033;-63
2023/01/02 06:16:38;;;;;;;17.05;7.70;;;12.40;99.90;;;;;;5086827;28;20040;-64
2023/01/02 06:19:05;;;;;;;17.75;8.25;;;12.30;99.90;;;;;;5074780;28;20040;-63
2023/01/02 06:21:31;;;;;;;18.48;8.43;;;12.30;99.90;;;;;;5085984;28;20044;-64
2023/01/02 06:23:57;;;;;;;17.08;8.27;;;12.40;99.90;;;;;;5086830;28;20033;-63
2023/01/02 06:26:25;;;;;;;19.15;8.20;;;12.30;99.90;;;;;;5085972;28;20051;-63
2023/01/02 06:28:55;;;;;;;16.63;7.90;;;12.30;99.90;;;;;;5087209;28;20081;-64
2023/01/02 06:31:24;;;;;;;18.48;7.80;;;12.30;99.90;;;;;;5066886;28;20048;-64
2023/01/02 06:33:58;;;;;;;14.35;7.13;;;12.30;99.90;;;;;;5057707;28;20062;-64
2023/01/02 06:36:25;;;;;;;15.52;7.32;;;12.40;99.90;;;;;;5068417;28;20043;-64
2023/01/02 06:38:50;;;;;;;12.52;7.00;;;12.20;99.90;;;;;;5086749;28;20070;-64
2023/01/02 06:41:16;;;;;;;18.08;7.53;;;12.40;99.90;;;;;;5068705;28;20071;-64
2023/01/02 06:43:47;;;;;;;11.10;7.50;;;12.20;99.90;;;;;;5086435;28;20044;-64
2023/01/02 06:46:15;;;;;;;15.43;8.18;;;12.40;99.90;;;;;;5085627;28;20088;-63
2023/01/02 06:48:41;;;;;;;12.02;7.40;;;12.40;99.90;;;;;;5076759;28;20053;-64
2023/01/02 06:51:10;;;;;;;13.75;7.40;;;12.20;99.90;;;;;;5067570;28;20083;-64
2023/01/02 06:53:37;;;;;;;14.23;8.18;;;12.30;99.90;;;;;;5085928;28;20036;-64
2023/01/02 06:56:03;;;;;;;9.85;7.05;;;12.20;99.90;;;;;;5088664;28;20041;-64
2023/01/02 06:58:31;;;;;;;11.50;7.50;;;12.30;99.90;;;;;;5097696;28;20061;-64
2023/01/02 07:01:02;;;;;;;13.25;7.72;;;12.30;99.90;;;;;;5085328;28;20079;-64
2023/01/02 07:03:28;;;;;;;11.32;6.97;;;12.50;99.90;;;;;;5086506;28;20041;-64
2023/01/02 07:05:57;;;;;;;13.95;7.28;;;12.30;99.90;;;;;;5086082;28;20079;-64
2023/01/02 07:08:23;;;;;;;13.25;6.95;;;12.30;99.90;;;;;;5068370;28;20056;-64
2023/01/02 07:10:49;;;;;;;11.50;7.75;;;12.50;99.90;;;;;;5086011;28;20052;-64
2023/01/02 07:13:14;;;;;;;10.43;6.32;;;12.40;99.90;;;;;;5076985;28;20100;-64
2023/01/02 07:15:40;;;;;;;14.02;7.57;;;12.40;99.90;;;;;;5063631;28;20068;-64
2023/01/02 07:18:05;;;;;;;12.20;7.25;;;12.30;99.90;;;;;;5067700;28;20048;-64
2023/01/02 07:20:31;;;;;;;12.35;6.88;;;12.30;99.90;;;;;;5083329;28;20032;-64
2023/01/02 07:22:57;;;;;;;14.10;7.07;;;12.40;99.90;;;;;;5066213;28;20044;-64
2023/01/02 07:25:22;;;;;;;11.13;7.53;;;12.30;99.90;;;;;;5085150;28;20400;-64
2023/01/02 07:27:48;;;;;;;12.07;7.53;;;12.30;99.90;;;;;;5085288;28;20504;-64
2023/01/02 07:30:14;;;;;;;11.77;7.55;;;12.30;99.90;;;;;;5085052;28;20456;-64
2023/01/02 07:32:39;;;;;;;10.52;7.25;;;12.20;99.90;;;;;;5085028;28;20496;-64
2023/01/02 07:35:06;;;;;;;8.93;6.82;;;11.90;99.90;;;;;;5099662;28;20043;-64
2023/01/02 07:37:31;;;;;;;6.72;4.40;;;11.90;99.90;;;;;;5085298;28;20092;-64
2023/01/02 07:39:57;;;;;;;4.40;3.38;;;11.60;99.90;;;;;;5067615;28;20047;-64
2023/01/02 07:42:23;;;;;;;2.05;1.63;;;11.60;99.90;;;;;;5080874;28;20047;-64
2023/01/02 07:44:48;;;;;;;2.60;1.80;;;11.60;99.90;;;;;;5085556;28;20082;-64
2023/01/02 07:47:14;;;;;;;2.17;1.50;;;11.50;99.90;;;;;;5084511;28;20120;-64
2023/01/02 07:49:39;;;;;;;1.65;1.55;;;11.40;99.90;;;;;;5085726;28;20040;-64
2023/01/02 07:52:09;;;;;;;1.50;1.40;;;11.20;99.90;;;;;;5067012;28;20078;-64
2023/01/02 07:54:35;;;;;;;1.85;1.42;;;11.10;99.90;;;;;;5084950;28;20044;-64
2023/01/02 07:57:00;;;;;;;2.60;1.88;;;11.00;99.90;;;;;;5078398;28;20400;-64
2023/01/02 07:59:26;;;;;;;2.50;1.88;;;11.00;99.90;;;;;;5064922;28;20087;-64
2023/01/02 08:01:52;;;;;;;2.55;2.30;;;10.80;99.90;;;;;;5060403;28;20080;-64
2023/01/02 08:04:18;;;;;;;3.20;2.50;;;10.70;99.90;;;;;;5065019;28;20041;-65
2023/01/02 08:06:43;;;;;;;3.97;3.45;;;10.60;99.90;;;;;;5065714;28;20486;-65
2023/01/02 08:09:12;;;;;;;6.07;3.85;;;10.60;99.90;;;;;;5072608;28;20104;-65
2023/01/02 08:11:37;;;;;;;5.18;3.80;;;10.60;99.90;;;;;;5089439;28;20040;-65
2023/01/02 08:14:03;;;;;;;5.50;4.13;;;10.70;99.90;;;;;;5093228;28;20070;-65
2023/01/02 08:16:29;;;;;;;6.55;5.03;;;10.60;99.90;;;;;;5084700;28;20548;-64
2023/01/02 08:18:55;;;;;;;5.88;4.93;;;10.60;99.90;;;;;;5084779;28;20041;-64
2023/01/02 08:21:25;;;;;;;5.93;4.65;;;10.60;99.90;;;;;;5066835;28;20079;-64
2023/01/02 08:23:51;;;;;;;5.90;4.28;;;10.60;99.90;;;;;;5066668;28;20044;-64
2023/01/02 08:26:17;;;;;;;5.20;3.83;;;10.40;99.90;;;;;;5084300;28;20111;-64
2023/01/02 08:28:43;;;;;;;5.72;4.15;;;10.30;99.90;;;;;;5085055;28;20068;-64
2023/01/02 08:31:18;;;;;;;5.20;3.65;;;10.00;99.90;;;;;;5084860;28;20056;-64
2023/01/02 08:33:44;;;;;;;5.07;3.40;;;10.10;99.90;;;;;;5084962;28;20072;-64
2023/01/02 08:36:10;;;;;;;5.47;3.47;;;10.10;99.90;;;;;;5085038;28;20075;-64
2023/01/02 08:38:36;;;;;;;6.80;4.03;;;10.00;99.90;;;;;;5067248;28;20044;-64
2023/01/02 08:41:02;;;;;;;5.50;3.50;;;9.80;99.90;;;;;;5084871;28;20567;-64
2023/01/02 08:43:28;;;;;;;5.45;3.10;;;9.80;99.90;;;;;;5084645;28;20033;-64
2023/01/02 08:45:54;;;;;;;4.53;2.90;;;9.80;99.90;;;;;;5084779;28;20071;-64
2023/01/02 08:48:20;;;;;;;5.20;2.85;;;9.70;99.90;;;;;;5084744;28;20524;-65
2023/01/02 08:50:46;;;;;;;3.40;2.20;;;9.70;99.90;;;;;;5090143;28;20079;-65
2023/01/02 08:53:12;;;;;;;3.60;2.35;;;9.80;99.90;;;;;;5087971;28;20044;-65
2023/01/02 08:55:37;;;;;;;3.35;2.03;;;9.70;99.90;;;;;;5087974;28;20097;-65
2023/01/02 08:58:03;;;;;;;2.22;1.40;;;9.60;99.90;;;;;;5087947;28;20086;-65
2023/01/02 09:00:28;;;;;;;5.30;1.58;;;9.50;99.90;;;;;;5087924;28;20067;-64
2023/01/02 09:02:54;;;;;;;1.77;1.42;;;9.40;99.90;;;;;;5070476;28;20063;-65
2023/01/02 09:05:20;;;;;;;1.63;1.13;;;9.50;99.90;;;;;;5088409;28;20100;-65
2023/01/02 09:07:45;;;;;;;2.35;1.48;;;9.50;99.90;;;;;;5088572;28;20064;-64
2023/01/02 09:10:11;;;;;;;2.13;1.42;;;9.20;99.90;;;;;;5087922;28;20032;-64
2023/01/02 09:12:37;;;;;;;3.22;1.90;;;9.10;99.90;;;;;;5088099;28;20123;-64
2023/01/02 09:15:03;;;;;;;4.15;1.80;;;9.40;99.90;;;;;;5070333;28;20103;-64
2023/01/02 09:17:29;;;;;;;3.58;1.95;;;9.20;99.90;;;;;;5088482;28;20040;-65
2023/01/02 09:19:55;;;;;;;3.80;1.65;;;9.30;99.90;;;;;;5088261;28;20075;-65
2023/01/02 09:22:20;;;;;;;3.88;1.98;;;9.20;99.90;;;;;;5088255;28;20068;-65
2023/01/02 09:24:46;;;;;;;2.85;1.50;;;9.10;99.90;;;;;;5070254;28;20056;-65
2023/01/02 09:27:12;;;;;;;3.33;1.50;;;9.00;99.90;;;;;;5088453;28;20046;-65
2023/01/02 09:29:38;;;;;;;2.90;1.45;;;9.00;99.90;;;;;;5087764;28;20037;-65
2023/01/02 09:32:03;;;;;;;2.85;1.92;;;9.10;99.90;;;;;;5087875;28;20040;-65
2023/01/02 09:34:29;;;;;;;2.28;1.75;;;9.10;99.90;;;;;;5088082;28;20049;-65
2023/01/02 09:36:55;;;;;;;3.20;1.52;;;9.00;99.90;;;;;;5087893;28;20073;-65
2023/01/02 09:39:20;;;;;;;2.92;1.90;;;9.00;99.90;;;;;;5088109;28;20043;-65
2023/01/02 09:41:51;;;;;;;3.90;2.00;;;9.00;99.90;;;;;;5087330;28;20084;-65
2023/01/02 09:44:25;;;;;;;3.22;1.75;;;8.90;99.90;;;;;;5086956;28;20044;-65
2023/01/02 09:47:07;;;;;;;3.80;2.10;;;9.00;99.90;;;;;;5087581;28;20045;-65
2023/01/02 09:49:45;;;;;;;3.35;2.20;;;8.90;99.90;;;;;;5064752;28;20070;-65
2023/01/02 09:52:27;;;;;;;2.45;1.67;;;9.00;99.90;;;;;;5069838;28;20052;-65
2023/01/02 09:54:53;;;;;;;4.10;2.20;;;9.00;99.90;;;;;;5086989;28;20051;-65
2023/01/02 09:57:25;;;;;;;2.28;1.73;;;9.00;99.90;;;;;;5086984;28;20040;-64
2023/01/02 10:00:12;;;;;;;3.72;1.73;;;9.00;99.90;;;;;;5069107;28;20338;-65
2023/01/02 10:03:02;;;;;;;3.20;1.70;;;9.00;99.90;;;;;;5065652;28;20037;-65
2023/01/02 10:05:49;;;;;;;3.80;1.95;;;9.00;99.90;;;;;;5087524;28;20037;-65
2023/01/02 10:08:41;;;;;;;2.97;1.92;;;9.10;99.90;;;;;;5043814;28;20049;-65
2023/01/02 10:11:41;;;;;;;3.15;2.00;;;9.10;99.90;;;;;;5086511;28;20040;-65
2023/01/02 10:14:35;;;;;;;4.00;2.22;;;9.10;99.90;;;;;;5041560;28;20048;-65
2023/01/02 10:17:04;;;;;;;3.45;2.42;;;9.00;99.90;;;;;;5086516;28;20045;-65
2023/01/02 10:19:38;;;;;;;3.15;2.10;;;9.00;99.90;;;;;;5086570;28;20123;-65
2023/01/02 10:22:06;;;;;;;4.57;2.22;;;9.00;99.90;;;;;;5086128;28;20045;-65
2023/01/02 10:24:38;;;;;;;3.60;2.65;;;9.10;99.90;;;;;;5086626;28;20032;-65
2023/01/02 10:27:10;;;;;;;3.90;2.22;;;9.10;99.90;;;;;;5086294;28;20051;-65
2023/01/02 10:29:43;;;;;;;3.17;2.42;;;9.10;99.90;;;;;;5086226;28;20036;-65
2023/01/02 10:32:16;;;;;;;4.97;2.95;;;9.10;99.90;;;;;;5067562;28;20503;-65
2023/01/02 10:34:57;;;;;;;5.18;2.10;;;9.00;99.90;;;;;;5086865;28;20442;-65
2023/01/02 10:37:26;;;;;;;4.80;2.40;;;9.10;99.90;;;;;;5086755;28;20051;-65
2023/01/02 10:39:52;;;;;;;5.20;2.35;;;9.10;99.90;;;;;;5086508;28;20036;-65
2023/01/02 10:42:18;;;;;;;5.88;2.50;;;9.00;99.90;;;;;;5086836;28;20044;-65
2023/01/02 10:44:46;;;;;;;5.35;2.60;;;9.10;99.90;;;;;;5087722;28;20036;-65
2023/01/02 10:47:24;;;;;;;4.50;2.50;;;9.00;99.90;;;;;;5093387;28;20056;-65
2023/01/02 10:49:51;;;;;;;4.28;2.47;;;9.00;99.90;;;;;;5067896;28;20044;-65
2023/01/02 10:52:20;;;;;;;4.38;2.58;;;9.00;99.90;;;;;;5086830;28;20044;-65
2023/01/02 10:54:52;;;;;;;7.05;2.17;;;8.80;99.90;;;;;;5081602;28;20041;-65
2023/01/02 10:57:25;;;;;;;6.13;2.78;;;8.80;99.90;;;;;;5078702;28;20033;-65
2023/01/02 10:59:57;;;;;;;5.05;2.70;;;8.80;99.90;;;;;;5062152;28;20058;-65
2023/01/02 11:02:36;;;;;;;4.65;2.22;;;8.90;99.90;;;;;;5058376;28;20048;-65
2023/01/02 11:05:03;;;;;;;5.40;2.50;;;8.80;99.90;;;;;;5062383;28;20064;-65
2023/01/02 11:07:33;;;;;;;6.70;2.33;;;8.90;99.90;;;;;;5086012;28;20100;-65
2023/01/02 11:10:00;;;;;;;6.03;2.42;;;8.90;99.90;;;;;;5086213;28;20048;-65
2023/01/02 11:12:25;;;;;;;4.70;2.30;;;9.00;99.90;;;;;;5066692;28;20500;-64
2023/01/02 11:14:52;;;;;;;4.70;2.75;;;9.10;99.90;;;;;;5067664;28;20036;-65
2023/01/02 11:17:20;;;;;;;5.40;2.35;;;9.10;99.90;;;;;;5086129;28;20116;-65
2023/01/02 11:19:55;;;;;;;2.95;2.13;;;9.20;99.90;;;;;;5085452;28;20484;-65
2023/01/02 11:22:31;;;;;;;4.57;2.38;;;9.00;99.90;;;;;;5067761;28;20040;-65
2023/01/02 11:25:01;;;;;;;5.25;2.22;;;9.00;99.90;;;;;;5094675;28;20062;-65
2023/01/02 11:27:44;;;;;;;3.63;2.53;;;9.00;99.90;;;;;;5085639;28;20036;-65
2023/01/02 11:30:45;;;;;;;5.20;2.55;;;9.10;99.90;;;;;;5085058;28;20056;-65
2023/01/02 11:33:23;;;;;;;7.88;3.15;;;9.30;99.90;;;;;;5085553;28;20052;-65
2023/01/02 11:36:02;;;;;;;6.70;3.10;;;9.10;99.90;;;;;;5067813;28;20078;-65
2023/01/02 11:38:42;;;;;;;5.55;3.25;;;9.10;99.90;;;;;;5078303;28;20037;-65
2023/01/02 11:44:33;;;;;;;6.28;2.95;;;9.20;99.90;;;;;;5084850;28;20052;-65
2023/01/02 11:47:02;;;;;;;5.07;2.72;;;9.20;99.90;;;;;;5082047;28;20124;-65
2023/01/02 11:49:42;;;;;;;8.00;3.03;;;9.30;99.90;;;;;;5085297;28;20028;-65
2023/01/02 11:52:13;;;;;;;4.90;2.60;;;9.30;99.90;;;;;;5085692;28;20063;-65
2023/01/02 11:54:42;;;;;;;;;;;9.20;99.90;;;;;;5082333;28;20100;-65
2023/01/02 11:57:46;;;;;;;5.72;3.17;;;9.20;99.90;;;;;;5085485;28;19927;-65
2023/01/02 12:00:14;;;;;;;6.25;2.83;;;9.20;99.90;;;;;;5061356;28;20056;-65
2023/01/02 12:02:44;;;;;;;6.88;2.92;;;9.10;99.90;;;;;;5088089;28;20094;-65
2023/01/02 12:05:13;;;;;;;6.10;2.97;;;9.10;99.90;;;;;;5092669;28;20049;-65
2023/01/02 12:07:51;;;;;;;8.50;2.80;;;9.10;99.90;;;;;;5071028;28;20045;-65
2023/01/02 12:10:38;;;;;;;5.50;2.55;;;9.10;99.90;;;;;;5085125;28;20043;-65
2023/01/02 12:13:22;;;;;;;4.88;2.70;;;9.10;99.90;;;;;;5085604;28;20123;-65
2023/01/02 12:16:12;;;;;;;5.85;2.50;;;9.10;99.90;;;;;;5053716;28;20067;-65
2023/01/02 12:19:06;;;;;;;5.03;2.67;;;9.20;99.90;;;;;;5085342;28;20055;-65
2023/01/02 12:22:01;;;;;;;5.18;2.25;;;9.40;99.90;;;;;;5067133;28;20044;-65
2023/01/02 12:24:59;;;;;;;4.70;2.38;;;9.50;99.90;;;;;;5024480;28;20128;-65
2023/01/02 12:27:59;;;;;;;5.97;2.38;;;9.40;99.90;;;;;;5018043;28;20313;-65
2023/01/02 12:30:25;;;;;;;5.93;2.45;;;9.40;99.90;;;;;;5020160;28;20065;-65
2023/01/02 12:32:59;;;;;;;8.63;1.90;;;9.30;99.90;;;;;;5024071;28;20068;-65
2023/01/02 12:36:02;;;;;;;7.18;2.10;;;9.20;99.90;;;;;;5019830;28;20125;-65
2023/01/02 12:38:47;;;;;;;6.07;2.35;;;9.20;99.90;;;;;;5020439;28;20050;-65
2023/01/02 12:41:36;;;;;;;7.05;2.15;;;9.10;99.90;;;;;;5010336;28;20050;-65
2023/01/02 12:44:05;;;;;;;8.07;2.40;;;9.20;99.90;;;;;;4996387;28;20070;-65
2023/01/02 12:46:41;;;;;;;7.53;2.53;;;9.30;99.90;;;;;;5017525;28;20045;-65
2023/01/02 12:49:15;;;;;;;8.48;2.53;;;9.20;99.90;;;;;;5012944;28;20069;-65
2023/01/02 12:51:49;;;;;;;9.77;3.17;;;9.20;99.90;;;;;;5018822;28;20058;-65
2023/01/02 12:54:45;;;;;;;6.38;2.60;;;9.30;99.90;;;;;;5006453;28;20109;-65
2023/01/02 12:57:35;;;;;;;9.43;2.30;;;9.30;99.90;;;;;;5006602;28;20132;-65
2023/01/02 13:00:06;;;;;;;12.68;2.58;;;9.20;99.90;;;;;;5021672;28;20077;-65
2023/01/02 13:03:06;;;;;;;9.13;2.28;;;9.30;99.90;;;;;;5024274;28;20049;-65
2023/01/02 13:05:39;;;;;;;10.88;2.95;;;9.40;99.90;;;;;;5077935;28;20047;-65
2023/01/02 13:08:17;;;;;;;10.38;3.20;;;9.30;99.90;;;;;;5088387;28;20047;-65